Time;durP1;ratioP1;P1;durP2;ratioP2;P2;SDS_P1;SDS_P2;PMS_P1;PMS_P2;Temp;Humidity;BMP_temperature;BMP_pressure;BME280_temperature;BME280_humidity;BME280_pressure;Samples;Min_cycle;Max_cycle;Signal;HPM_P1;HPM_P2
2022/11/25 00:01:15;;;;;;;13.32;7.07;;;;;;;;;;5033512;28;20053;-66
2022/11/25 00:03:42;;;;;;;11.30;7.13;;;;;;;;;;5014903;28;20061;-65
2022/11/25 00:06:09;;;;;;;13.60;7.10;;;;;;;;;;5014189;28;20100;-65
2022/11/25 00:08:36;;;;;;;13.88;7.00;;;;;;;;;;5013700;28;20046;-65
2022/11/25 00:11:03;;;;;;;11.85;6.68;;;;;;;;;;5014022;28;20108;-65
2022/11/25 00:13:31;;;;;;;9.07;6.10;;;;;;;;;;5013763;28;20467;-65
2022/11/25 00:16:01;;;;;;;9.48;6.90;;;;;;;;;;5013692;28;20096;-65
2022/11/25 00:18:28;;;;;;;11.23;6.75;;;;;;;;;;5013385;28;20508;-65
2022/11/25 00:20:55;;;;;;;10.07;7.00;;;;;;;;;;5013070;28;20547;-66
2022/11/25 00:23:22;;;;;;;13.60;7.15;;;;;;;;;;5013899;28;20045;-65
2022/11/25 00:25:48;;;;;;;13.38;7.75;;;;;;;;;;5013734;28;20555;-65
2022/11/25 00:28:17;;;;;;;13.43;7.47;;;;;;;;;;5013017;28;20054;-65
2022/11/25 00:30:44;;;;;;;12.95;7.38;;;;;;;;;;5013574;28;20049;-65
2022/11/25 00:33:10;;;;;;;12.23;7.72;;;;;;;;;;5028892;28;20049;-65
2022/11/25 00:35:37;;;;;;;11.55;7.50;;;;;;;;;;5033391;28;20049;-65
2022/11/25 00:38:03;;;;;;;11.70;7.85;;;;;;;;;;5032758;28;20072;-65
2022/11/25 00:40:30;;;;;;;13.88;7.85;;;;;;;;;;5032932;28;20117;-66
2022/11/25 00:45:42;;;;;;;10.20;7.68;;;;;;;;;;5033256;28;20119;-66
2022/11/25 00:48:08;;;;;;;10.27;6.72;;;;;;;;;;5032501;28;20053;-66
2022/11/25 00:50:35;;;;;;;10.48;7.30;;;;;;;;;;5033001;28;20428;-65
2022/11/25 00:53:01;;;;;;;11.00;6.88;;;;;;;;;;5032824;28;20104;-66
2022/11/25 00:56:11;;;;;;;10.95;7.13;;;;;;;;;;5033209;28;20482;-66
2022/11/25 00:58:15;;;;;;;12.70;7.35;;;;;;;;;;5032261;28;20108;-66
2022/11/25 01:00:41;;;;;;;11.70;7.28;;;;;;;;;;5032442;28;20492;-66
2022/11/25 01:03:09;;;;;;;11.93;6.90;;;;;;;;;;5018213;28;20508;-66
2022/11/25 01:05:36;;;;;;;8.80;6.28;;;;;;;;;;5011600;28;20500;-66
2022/11/25 01:08:03;;;;;;;9.35;6.50;;;;;;;;;;5012364;28;20497;-65
2022/11/25 01:10:29;;;;;;;10.02;6.65;;;;;;;;;;5012595;28;20050;-66
2022/11/25 01:12:56;;;;;;;15.85;6.93;;;;;;;;;;5013214;28;20107;-65
2022/11/25 01:15:22;;;;;;;8.50;6.50;;;;;;;;;;5012824;28;20420;-65
2022/11/25 01:17:49;;;;;;;9.60;7.18;;;;;;;;;;5012163;28;20049;-65
2022/11/25 01:20:16;;;;;;;14.20;6.60;;;;;;;;;;5012428;28;20493;-65
2022/11/25 01:22:42;;;;;;;11.18;6.32;;;;;;;;;;5012636;28;20112;-66
2022/11/25 01:25:09;;;;;;;15.48;5.82;;;;;;;;;;5012582;28;20468;-66
2022/11/25 01:27:41;;;;;;;12.43;5.90;;;;;;;;;;5012541;28;20073;-66
2022/11/25 01:30:08;;;;;;;7.78;5.38;;;;;;;;;;5012017;28;20568;-66
2022/11/25 01:32:35;;;;;;;12.60;5.93;;;;;;;;;;5011566;28;20111;-66
2022/11/25 01:35:02;;;;;;;7.72;5.88;;;;;;;;;;5012789;28;20050;-66
2022/11/25 01:37:29;;;;;;;13.43;5.63;;;;;;;;;;5012591;28;20050;-66
2022/11/25 01:39:55;;;;;;;10.57;5.72;;;;;;;;;;5011722;28;20567;-66
2022/11/25 01:42:22;;;;;;;8.10;5.50;;;;;;;;;;5032021;28;20053;-66
2022/11/25 01:45:22;;;;;;;8.05;5.60;;;;;;;;;;5030705;28;20570;-66
2022/11/25 01:47:56;;;;;;;8.68;5.20;;;;;;;;;;5031629;28;20100;-66
2022/11/25 01:50:23;;;;;;;8.45;4.90;;;;;;;;;;5027700;28;20042;-66
2022/11/25 01:52:50;;;;;;;7.80;5.13;;;;;;;;;;4994830;28;20536;-66
2022/11/25 01:55:28;;;;;;;7.30;4.82;;;;;;;;;;5010985;28;20054;-66
2022/11/25 01:58:01;;;;;;;10.82;4.50;;;;;;;;;;5010745;28;20058;-66
2022/11/25 02:00:28;;;;;;;;;;;;;;;;;;5014459;28;20557;-66
2022/11/25 02:02:54;;;;;;;7.63;4.65;;;;;;;;;;5031915;28;19921;-66
2022/11/25 02:05:29;;;;;;;12.75;5.28;;;;;;;;;;5030552;28;20053;-66
2022/11/25 02:07:59;;;;;;;7.15;4.75;;;;;;;;;;5030029;28;20119;-66
2022/11/25 02:10:28;;;;;;;8.07;5.03;;;;;;;;;;5010730;28;20504;-66
2022/11/25 02:12:54;;;;;;;9.65;4.50;;;;;;;;;;5010941;28;20128;-66
2022/11/25 02:15:21;;;;;;;8.88;4.95;;;;;;;;;;5012028;28;20489;-66
2022/11/25 02:17:48;;;;;;;9.45;4.45;;;;;;;;;;5010378;28;20108;-66
2022/11/25 02:20:20;;;;;;;8.20;5.15;;;;;;;;;;5010454;28;20056;-66
2022/11/25 02:23:13;;;;;;;6.78;5.03;;;;;;;;;;4994552;28;20046;-66
2022/11/25 02:25:40;;;;;;;9.18;4.60;;;;;;;;;;5012528;28;20429;-66
2022/11/25 02:28:18;;;;;;;8.63;5.00;;;;;;;;;;5031174;28;20096;-66
2022/11/25 02:30:45;;;;;;;8.30;4.90;;;;;;;;;;5025970;28;20061;-66
2022/11/25 02:33:12;;;;;;;9.15;4.78;;;;;;;;;;5011699;28;20046;-66
2022/11/25 02:36:02;;;;;;;8.93;4.18;;;;;;;;;;5011928;28;20049;-66
2022/11/25 02:38:36;;;;;;;9.40;4.93;;;;;;;;;;4998270;28;20578;-66
2022/11/25 02:41:11;;;;;;;10.43;4.80;;;;;;;;;;5011591;28;20058;-66
2022/11/25 02:43:37;;;;;;;9.73;4.88;;;;;;;;;;5011885;28;20046;-65
2022/11/25 02:46:07;;;;;;;9.98;4.57;;;;;;;;;;5015872;28;20054;-65
2022/11/25 02:48:35;;;;;;;11.23;4.45;;;;;;;;;;5015195;28;20089;-66
2022/11/25 02:51:25;;;;;;;10.23;4.80;;;;;;;;;;5015667;28;20050;-66
2022/11/25 02:53:52;;;;;;;10.57;5.25;;;;;;;;;;5014181;28;20547;-66
2022/11/25 02:56:20;;;;;;;8.55;5.05;;;;;;;;;;5015342;28;20100;-66
2022/11/25 02:58:47;;;;;;;10.98;4.57;;;;;;;;;;5015043;28;20104;-66
2022/11/25 03:01:13;;;;;;;8.05;5.38;;;;;;;;;;5015155;28;20049;-65
2022/11/25 03:03:40;;;;;;;9.77;4.10;;;;;;;;;;5026626;28;20056;-66
2022/11/25 03:06:07;;;;;;;10.07;4.80;;;;;;;;;;5034973;28;20049;-66
2022/11/25 03:08:35;;;;;;;7.72;4.10;;;;;;;;;;5034240;28;20050;-66
2022/11/25 03:11:02;;;;;;;8.45;4.60;;;;;;;;;;5034970;28;20045;-65
2022/11/25 03:13:28;;;;;;;9.48;5.00;;;;;;;;;;5034921;28;20519;-66
2022/11/25 03:15:55;;;;;;;8.63;5.25;;;;;;;;;;5021657;28;20049;-66
2022/11/25 03:18:22;;;;;;;9.75;4.90;;;;;;;;;;5014826;28;20045;-66
2022/11/25 03:20:55;;;;;;;6.28;4.90;;;;;;;;;;5014663;28;20050;-66
2022/11/25 03:23:21;;;;;;;8.23;4.65;;;;;;;;;;5014784;28;21044;-66
2022/11/25 03:25:48;;;;;;;10.32;4.95;;;;;;;;;;5015012;28;20046;-65
2022/11/25 03:28:15;;;;;;;6.80;4.15;;;;;;;;;;5014536;28;20057;-66
2022/11/25 03:30:42;;;;;;;9.60;4.70;;;;;;;;;;5014676;28;20046;-66
2022/11/25 03:33:09;;;;;;;6.53;4.47;;;;;;;;;;5014820;28;20054;-66
2022/11/25 03:35:35;;;;;;;8.88;4.50;;;;;;;;;;5014663;28;20046;-66
2022/11/25 03:38:02;;;;;;;8.82;4.60;;;;;;;;;;5014481;28;20409;-66
2022/11/25 03:40:28;;;;;;;9.43;4.70;;;;;;;;;;5030718;28;20121;-66
2022/11/25 03:42:55;;;;;;;8.05;4.28;;;;;;;;;;5034505;28;20049;-66
2022/11/25 03:45:22;;;;;;;6.07;4.75;;;;;;;;;;5034392;28;20394;-66
2022/11/25 03:47:48;;;;;;;6.63;4.68;;;;;;;;;;5033810;28;20471;-66
2022/11/25 03:50:15;;;;;;;5.88;4.00;;;;;;;;;;5033955;28;20049;-65
2022/11/25 03:52:42;;;;;;;6.07;4.18;;;;;;;;;;5015281;28;20050;-66
2022/11/25 03:55:11;;;;;;;5.90;4.65;;;;;;;;;;5013742;28;20268;-66
2022/11/25 03:57:38;;;;;;;7.60;4.53;;;;;;;;;;5014040;28;20092;-66
2022/11/25 04:00:05;;;;;;;9.77;5.40;;;;;;;;;;5013684;28;20077;-65
2022/11/25 04:02:33;;;;;;;7.57;4.80;;;;;;;;;;5014335;28;20054;-66
2022/11/25 04:05:00;;;;;;;7.47;4.63;;;;;;;;;;5017615;28;20513;-66
2022/11/25 04:07:26;;;;;;;6.20;4.00;;;;;;;;;;5014378;28;20054;-66
2022/11/25 04:09:53;;;;;;;8.50;5.18;;;;;;;;;;5013499;28;20472;-66
2022/11/25 04:15:05;;;;;;;8.52;4.38;;;;;;;;;;5018595;28;20485;-66
2022/11/25 04:17:32;;;;;;;7.53;4.70;;;;;;;;;;5031914;28;20054;-65
2022/11/25 04:19:58;;;;;;;11.02;5.65;;;;;;;;;;5039119;23;20046;-67
2022/11/25 04:22:25;;;;;;;9.63;5.53;;;;;;;;;;5013958;28;20046;-67
2022/11/25 04:24:52;;;;;;;8.25;4.80;;;;;;;;;;5014042;28;20486;-66
2022/11/25 04:27:18;;;;;;;6.43;5.22;;;;;;;;;;5013964;28;20085;-67
2022/11/25 04:29:46;;;;;;;7.18;4.90;;;;;;;;;;5013233;28;20049;-66
2022/11/25 04:32:12;;;;;;;8.13;5.32;;;;;;;;;;5014012;28;20107;-67
2022/11/25 04:34:39;;;;;;;8.98;4.45;;;;;;;;;;5014211;28;20050;-66
2022/11/25 04:37:05;;;;;;;7.70;4.82;;;;;;;;;;5014154;28;20517;-67
2022/11/25 04:39:32;;;;;;;9.75;5.15;;;;;;;;;;5013289;28;20085;-67
2022/11/25 04:44:44;;;;;;;7.53;5.72;;;;;;;;;;5013962;28;20406;-66
2022/11/25 04:47:31;;;;;;;8.60;5.43;;;;;;;;;;5013237;28;20141;-67
2022/11/25 04:49:57;;;;;;;9.05;5.45;;;;;;;;;;5012964;28;20045;-68
2022/11/25 04:52:24;;;;;;;9.15;6.20;;;;;;;;;;5013767;28;20058;-67
2022/11/25 04:54:51;;;;;;;12.38;6.15;;;;;;;;;;5013510;28;20049;-67
2022/11/25 04:57:18;;;;;;;8.90;6.28;;;;;;;;;;5013553;28;20299;-67
2022/11/25 04:59:45;;;;;;;9.38;5.55;;;;;;;;;;5012588;28;20053;-67
2022/11/25 05:02:18;;;;;;;8.98;5.97;;;;;;;;;;5013257;28;20053;-68
2022/11/25 05:04:47;;;;;;;7.32;6.00;;;;;;;;;;5013423;28;20488;-67
2022/11/25 05:07:15;;;;;;;7.20;4.90;;;;;;;;;;5012913;28;20046;-67
2022/11/25 05:09:42;;;;;;;6.40;5.00;;;;;;;;;;4992786;28;20084;-67
2022/11/25 05:12:11;;;;;;;6.50;5.18;;;;;;;;;;4993785;28;20105;-66
2022/11/25 05:14:38;;;;;;;5.88;4.60;;;;;;;;;;4986391;28;20058;-68
2022/11/25 05:17:06;;;;;;;5.70;4.35;;;;;;;;;;5003411;28;20054;-67
2022/11/25 05:19:34;;;;;;;6.28;5.07;;;;;;;;;;5006624;28;20058;-68
2022/11/25 05:22:01;;;;;;;7.00;4.72;;;;;;;;;;5013425;28;20444;-67
2022/11/25 05:24:28;;;;;;;6.50;4.72;;;;;;;;;;5013757;28;20042;-64
2022/11/25 05:26:54;;;;;;;10.20;5.35;;;;;;;;;;5010954;28;20050;-68
2022/11/25 05:29:21;;;;;;;5.95;4.90;;;;;;;;;;4998064;28;20065;-67
2022/11/25 05:31:48;;;;;;;8.15;5.55;;;;;;;;;;4993280;28;20054;-67
2022/11/25 05:34:14;;;;;;;7.60;6.03;;;;;;;;;;4983843;28;20045;-68
2022/11/25 05:36:41;;;;;;;8.85;5.70;;;;;;;;;;5004964;28;20099;-67
2022/11/25 05:39:07;;;;;;;9.30;5.45;;;;;;;;;;4997797;28;20050;-67
2022/11/25 05:41:34;;;;;;;10.10;6.03;;;;;;;;;;5001164;28;20087;-68
2022/11/25 05:44:01;;;;;;;7.50;5.43;;;;;;;;;;4993031;28;20054;-66
2022/11/25 05:46:27;;;;;;;7.50;5.43;;;;;;;;;;4975812;28;20501;-66
2022/11/25 05:48:55;;;;;;;8.70;4.97;;;;;;;;;;4992037;28;20042;-67
2022/11/25 05:51:22;;;;;;;9.00;5.93;;;;;;;;;;4992817;28;20461;-67
2022/11/25 05:53:49;;;;;;;9.68;6.40;;;;;;;;;;4992790;28;20096;-67
2022/11/25 05:56:16;;;;;;;6.82;6.00;;;;;;;;;;4992782;28;20058;-67
2022/11/25 05:58:42;;;;;;;6.47;5.25;;;;;;;;;;5002474;28;20112;-67
2022/11/25 06:01:10;;;;;;;7.88;5.93;;;;;;;;;;5012468;28;20440;-67
2022/11/25 06:03:37;;;;;;;7.97;6.00;;;;;;;;;;5009270;28;20076;-67
2022/11/25 06:06:04;;;;;;;11.25;6.22;;;;;;;;;;5010086;28;20493;-67
2022/11/25 06:08:31;;;;;;;12.90;6.53;;;;;;;;;;5008816;28;20128;-65
2022/11/25 06:10:58;;;;;;;9.80;6.68;;;;;;;;;;5010390;28;20570;-68
2022/11/25 06:13:24;;;;;;;9.30;6.45;;;;;;;;;;5010225;28;20111;-66
2022/11/25 06:15:51;;;;;;;8.63;6.25;;;;;;;;;;5010263;28;20112;-66
2022/11/25 06:18:18;;;;;;;10.38;6.57;;;;;;;;;;5002221;28;20503;-67
2022/11/25 06:20:45;;;;;;;8.95;6.45;;;;;;;;;;4973373;28;20054;-66
2022/11/25 06:23:11;;;;;;;12.15;7.35;;;;;;;;;;4990870;28;20049;-67
2022/11/25 06:25:38;;;;;;;10.25;7.30;;;;;;;;;;4990461;28;20092;-67
2022/11/25 06:28:05;;;;;;;12.38;7.72;;;;;;;;;;4989386;28;20093;-69
2022/11/25 06:30:39;;;;;;;9.65;7.80;;;;;;;;;;4990274;28;20054;-67
2022/11/25 06:33:05;;;;;;;9.18;6.63;;;;;;;;;;4990558;28;20053;-66
2022/11/25 06:35:32;;;;;;;10.00;6.40;;;;;;;;;;4990504;28;20050;-67
2022/11/25 06:37:59;;;;;;;10.45;6.13;;;;;;;;;;4989664;28;20568;-66
2022/11/25 06:40:25;;;;;;;8.43;6.03;;;;;;;;;;4990379;28;20058;-67
2022/11/25 06:42:52;;;;;;;14.50;6.97;;;;;;;;;;4990073;28;20050;-68
2022/11/25 06:45:19;;;;;;;9.48;6.60;;;;;;;;;;4990133;28;20085;-66
2022/11/25 06:47:45;;;;;;;9.77;6.78;;;;;;;;;;4990756;28;20046;-66
2022/11/25 06:50:12;;;;;;;8.13;6.30;;;;;;;;;;4990189;28;20150;-69
2022/11/25 06:52:39;;;;;;;12.90;6.82;;;;;;;;;;4990313;28;20054;-67
2022/11/25 06:55:06;;;;;;;13.05;5.78;;;;;;;;;;4989967;28;20058;-67
2022/11/25 06:57:33;;;;;;;18.40;6.85;;;;;;;;;;4990204;28;20058;-67
2022/11/25 06:59:59;;;;;;;11.55;6.38;;;;;;;;;;4989489;28;20120;-66
2022/11/25 07:02:26;;;;;;;12.80;6.50;;;;;;;;;;4990430;28;20050;-67
2022/11/25 07:04:53;;;;;;;9.80;5.85;;;;;;;;;;4998423;28;20077;-70
2022/11/25 07:07:20;;;;;;;9.98;6.25;;;;;;;;;;5009099;28;20081;-67
2022/11/25 07:09:46;;;;;;;10.50;6.45;;;;;;;;;;5008994;28;20084;-68
2022/11/25 07:12:13;;;;;;;13.68;7.75;;;;;;;;;;5009744;28;20054;-69
2022/11/25 07:14:40;;;;;;;12.82;7.75;;;;;;;;;;5009287;28;20045;-68
2022/11/25 07:17:07;;;;;;;12.02;7.22;;;;;;;;;;5001852;28;20054;-68
2022/11/25 07:19:37;;;;;;;13.70;8.23;;;;;;;;;;4988956;28;20046;-67
2022/11/25 07:22:04;;;;;;;13.23;7.43;;;;;;;;;;5004210;28;20084;-67
2022/11/25 07:24:32;;;;;;;10.88;6.40;;;;;;;;;;5009694;28;20069;-67
2022/11/25 07:26:59;;;;;;;13.65;7.65;;;;;;;;;;5009327;28;20054;-71
2022/11/25 07:29:26;;;;;;;12.30;5.93;;;;;;;;;;5009046;28;20444;-67
2022/11/25 07:32:13;;;;;;;13.50;6.93;;;;;;;;;;5000371;28;20054;-68
2022/11/25 07:34:41;;;;;;;12.07;8.10;;;;;;;;;;4992980;28;20050;-67
2022/11/25 07:37:07;;;;;;;12.93;8.27;;;;;;;;;;4993175;28;20046;-67
2022/11/25 07:39:34;;;;;;;11.40;7.25;;;;;;;;;;4992987;28;20046;-67
2022/11/25 07:42:01;;;;;;;16.00;8.60;;;;;;;;;;5002650;28;20464;-68
2022/11/25 07:44:28;;;;;;;13.65;7.88;;;;;;;;;;5012795;28;20049;-70
2022/11/25 07:46:55;;;;;;;13.55;7.30;;;;;;;;;;5011831;28;20065;-68
2022/11/25 07:49:25;;;;;;;12.38;7.97;;;;;;;;;;5011847;28;20100;-69
2022/11/25 07:51:54;;;;;;;16.83;10.05;;;;;;;;;;5012071;28;20054;-68
2022/11/25 07:54:22;;;;;;;11.80;7.85;;;;;;;;;;5012483;28;20146;-68
2022/11/25 07:56:49;;;;;;;12.10;6.97;;;;;;;;;;5012495;28;20053;-69
2022/11/25 07:59:18;;;;;;;9.55;6.82;;;;;;;;;;5011788;28;20056;-68
2022/11/25 08:01:44;;;;;;;12.82;7.10;;;;;;;;;;4993114;28;20104;-69
2022/11/25 08:04:12;;;;;;;15.05;7.20;;;;;;;;;;4993023;28;20500;-69
2022/11/25 08:06:47;;;;;;;13.20;7.65;;;;;;;;;;4992904;28;20505;-73
2022/11/25 08:09:18;;;;;;;19.08;7.55;;;;;;;;;;4975069;28;20058;-69
2022/11/25 08:11:45;;;;;;;14.23;7.10;;;;;;;;;;4999405;28;20112;-70
2022/11/25 08:14:12;;;;;;;14.43;6.07;;;;;;;;;;5012347;28;20057;-71
2022/11/25 08:16:38;;;;;;;10.98;5.72;;;;;;;;;;5013300;28;20050;-69
2022/11/25 08:19:12;;;;;;;15.15;8.63;;;;;;;;;;5013375;28;20050;-68
2022/11/25 08:21:41;;;;;;;22.60;12.35;;;;;;;;;;4983289;28;20053;-68
2022/11/25 08:24:16;;;;;;;14.27;8.52;;;;;;;;;;4991689;28;20455;-68
2022/11/25 08:26:43;;;;;;;10.77;6.55;;;;;;;;;;4974307;28;20050;-68
2022/11/25 08:29:14;;;;;;;12.70;5.90;;;;;;;;;;4990218;28;20112;-68
2022/11/25 08:31:41;;;;;;;11.35;5.50;;;;;;;;;;4995552;28;20085;-67
2022/11/25 08:34:14;;;;;;;8.27;5.15;;;;;;;;;;5010427;28;20054;-69
2022/11/25 08:36:41;;;;;;;9.95;6.70;;;;;;;;;;5010673;28;20552;-70
2022/11/25 08:39:14;;;;;;;10.83;7.17;;;;;;;;;;5010140;28;20442;-73
2022/11/25 08:42:04;;;;;;;12.60;6.05;;;;;;;;;;4995283;28;20531;-78
2022/11/25 08:44:30;;;;;;;8.23;4.90;;;;;;;;;;4975238;28;20046;-68
2022/11/25 08:47:15;;;;;;;9.57;5.45;;;;;;;;;;5010995;28;20058;-76
2022/11/25 08:49:42;;;;;;;10.90;5.68;;;;;;;;;;4992060;28;20093;-77
2022/11/25 08:52:12;;;;;;;20.85;11.52;;;;;;;;;;4978311;28;20073;-75
2022/11/25 08:54:39;;;;;;;13.98;6.05;;;;;;;;;;5014775;28;20049;-72
2022/11/25 08:57:17;;;;;;;8.68;5.82;;;;;;;;;;5010896;28;20050;-74
2022/11/25 08:59:44;;;;;;;9.75;4.40;;;;;;;;;;4990067;28;20050;-75
2022/11/25 09:02:12;;;;;;;9.18;4.88;;;;;;;;;;4974835;28;20548;-73
2022/11/25 09:04:41;;;;;;;9.63;5.10;;;;;;;;;;4975525;28;20050;-75
2022/11/25 09:07:08;;;;;;;9.80;5.72;;;;;;;;;;4976700;28;20124;-76
2022/11/25 09:09:35;;;;;;;7.53;4.50;;;;;;;;;;5003041;28;20467;-73
2022/11/25 09:12:02;;;;;;;9.27;5.53;;;;;;;;;;5010811;28;20060;-72
2022/11/25 09:14:29;;;;;;;9.07;5.38;;;;;;;;;;4981203;28;20429;-69
2022/11/25 09:16:56;;;;;;;7.32;4.78;;;;;;;;;;4992401;28;20431;-67
2022/11/25 09:19:22;;;;;;;8.52;4.40;;;;;;;;;;4992086;28;20050;-68
2022/11/25 09:21:49;;;;;;;8.25;4.82;;;;;;;;;;4993168;28;20050;-66
2022/11/25 09:24:16;;;;;;;9.27;4.47;;;;;;;;;;4993026;28;20497;-70
2022/11/25 09:26:43;;;;;;;6.65;4.45;;;;;;;;;;5012110;28;20054;-71
2022/11/25 09:29:11;;;;;;;8.80;4.35;;;;;;;;;;4977060;28;20042;-70
2022/11/25 09:31:39;;;;;;;12.57;4.10;;;;;;;;;;4973198;28;20050;-70
2022/11/25 09:34:07;;;;;;;8.82;3.60;;;;;;;;;;4974550;28;20046;-65
2022/11/25 09:36:34;;;;;;;6.50;3.17;;;;;;;;;;4992314;28;20050;-65
2022/11/25 09:39:00;;;;;;;6.30;3.03;;;;;;;;;;4991909;28;20104;-65
2022/11/25 09:47:48;;;;;;;7.20;3.03;;;;;;;;;;4997791;28;20196;-66
2022/11/25 09:50:37;;;;;;;7.65;3.10;;;;;;;;;;4996197;28;20054;-66
2022/11/25 09:53:14;;;;;;;5.57;2.88;;;;;;;;;;5011576;28;20046;-65
2022/11/25 09:55:46;;;;;;;4.03;2.45;;;;;;;;;;5012550;28;20405;-65
2022/11/25 09:58:35;;;;;;;5.30;2.40;;;;;;;;;;4978231;28;20071;-66
2022/11/25 10:01:13;;;;;;;4.28;2.38;;;;;;;;;;5012290;28;20053;-65
2022/11/25 10:03:53;;;;;;;6.95;3.03;;;;;;;;;;4995170;28;20512;-66
2022/11/25 10:06:31;;;;;;;3.92;2.90;;;;;;;;;;5012307;28;20112;-67
2022/11/25 10:09:06;;;;;;;5.82;3.25;;;;;;;;;;5011556;28;20555;-66
2022/11/25 10:11:51;;;;;;;6.97;2.97;;;;;;;;;;5011969;28;20402;-66
2022/11/25 10:14:32;;;;;;;4.85;3.05;;;;;;;;;;4994761;28;20104;-64
2022/11/25 10:17:08;;;;;;;4.55;3.08;;;;;;;;;;4994861;28;20397;-64
2022/11/25 10:19:40;;;;;;;6.72;2.92;;;;;;;;;;5032162;23;20050;-66
2022/11/25 10:22:30;;;;;;;5.93;2.60;;;;;;;;;;5012296;28;20078;-67
2022/11/25 10:24:59;;;;;;;10.00;3.33;;;;;;;;;;4996658;28;20049;-67
2022/11/25 10:28:02;;;;;;;10.02;3.05;;;;;;;;;;4994555;28;20557;-67
2022/11/25 10:30:52;;;;;;;6.03;2.78;;;;;;;;;;4997166;28;20104;-66
2022/11/25 10:33:25;;;;;;;4.35;2.80;;;;;;;;;;5012764;28;20192;-64
2022/11/25 10:35:52;;;;;;;7.72;2.88;;;;;;;;;;5010654;28;20463;-66
2022/11/25 10:38:27;;;;;;;9.00;3.67;;;;;;;;;;5011089;28;20096;-66
2022/11/25 10:40:54;;;;;;;7.95;3.40;;;;;;;;;;4994344;28;20111;-66
2022/11/25 10:43:21;;;;;;;12.63;4.50;;;;;;;;;;5010362;28;20108;-64
2022/11/25 10:46:17;;;;;;;4.60;2.88;;;;;;;;;;5010552;28;20049;-65
2022/11/25 10:49:14;;;;;;;5.15;2.95;;;;;;;;;;5010926;28;20081;-66
2022/11/25 10:51:48;;;;;;;9.98;3.70;;;;;;;;;;5011789;28;20050;-66
2022/11/25 10:54:21;;;;;;;5.35;3.17;;;;;;;;;;5011655;28;20571;-66
2022/11/25 10:56:58;;;;;;;4.63;3.67;;;;;;;;;;5012081;28;20057;-65
2022/11/25 10:59:30;;;;;;;8.98;4.28;;;;;;;;;;5010627;28;20068;-65
2022/11/25 11:02:11;;;;;;;6.00;3.20;;;;;;;;;;5011453;28;20108;-65
2022/11/25 11:05:07;;;;;;;6.43;3.53;;;;;;;;;;5011979;28;20128;-65
2022/11/25 11:07:45;;;;;;;6.07;3.40;;;;;;;;;;4998381;28;20104;-65
2022/11/25 11:10:20;;;;;;;7.13;3.38;;;;;;;;;;5014830;28;20077;-65
2022/11/25 11:13:04;;;;;;;5.78;3.72;;;;;;;;;;5015136;28;20522;-65
2022/11/25 11:15:40;;;;;;;6.93;4.13;;;;;;;;;;5015237;28;20080;-66
2022/11/25 11:18:26;;;;;;;8.45;3.58;;;;;;;;;;5014334;28;20054;-66
2022/11/25 11:20:57;;;;;;;7.13;4.15;;;;;;;;;;5015116;28;20089;-66
2022/11/25 11:23:25;;;;;;;10.38;4.88;;;;;;;;;;5013655;28;20054;-64
2022/11/25 11:26:08;;;;;;;9.55;4.53;;;;;;;;;;4997426;28;20049;-66
2022/11/25 11:28:35;;;;;;;8.88;5.28;;;;;;;;;;5013970;28;20496;-66
2022/11/25 11:31:25;;;;;;;13.68;5.88;;;;;;;;;;5014531;28;20050;-65
2022/11/25 11:33:57;;;;;;;10.60;5.55;;;;;;;;;;4997681;28;20049;-66
2022/11/25 11:36:33;;;;;;;10.82;6.78;;;;;;;;;;5014643;28;20050;-65
2022/11/25 11:39:06;;;;;;;9.88;5.47;;;;;;;;;;5012542;28;20238;-66
2022/11/25 11:41:54;;;;;;;8.55;5.22;;;;;;;;;;5014742;28;20416;-65
2022/11/25 11:44:25;;;;;;;12.40;5.55;;;;;;;;;;5013469;28;20050;-66
2022/11/25 11:47:19;;;;;;;13.00;6.25;;;;;;;;;;5011988;28;20053;-66
2022/11/25 11:49:48;;;;;;;8.80;5.57;;;;;;;;;;5012530;28;20045;-66
2022/11/25 11:52:48;;;;;;;9.48;5.13;;;;;;;;;;5014540;28;20054;-66
2022/11/25 11:55:36;;;;;;;9.15;5.18;;;;;;;;;;4964706;28;20417;-64
2022/11/25 11:58:22;;;;;;;11.95;6.10;;;;;;;;;;5013883;28;20057;-65
2022/11/25 12:00:59;;;;;;;11.32;4.50;;;;;;;;;;5014112;28;20057;-65
2022/11/25 12:03:26;;;;;;;10.68;4.88;;;;;;;;;;5013017;28;20116;-67
2022/11/25 12:05:56;;;;;;;7.45;4.40;;;;;;;;;;4996677;28;20089;-65
2022/11/25 12:08:36;;;;;;;6.97;3.75;;;;;;;;;;5012538;28;20076;-66
2022/11/25 12:11:08;;;;;;;7.97;4.38;;;;;;;;;;4996853;28;20100;-66
2022/11/25 12:14:02;;;;;;;10.50;5.03;;;;;;;;;;5013105;28;20058;-64
2022/11/25 12:16:33;;;;;;;8.65;4.63;;;;;;;;;;5012066;28;20104;-65
2022/11/25 12:19:06;;;;;;;8.98;4.85;;;;;;;;;;4995900;28;20108;-66
2022/11/25 12:21:44;;;;;;;10.77;4.90;;;;;;;;;;5013884;28;20060;-66
2022/11/25 12:24:35;;;;;;;9.35;5.70;;;;;;;;;;5013972;28;20085;-66
2022/11/25 12:27:10;;;;;;;9.82;5.30;;;;;;;;;;5013599;28;20133;-66
2022/11/25 12:29:52;;;;;;;10.05;4.88;;;;;;;;;;4995639;28;20046;-66
2022/11/25 12:32:39;;;;;;;12.13;6.43;;;;;;;;;;5013760;28;20053;-66
2022/11/25 12:35:06;;;;;;;10.25;6.50;;;;;;;;;;5012350;28;20050;-65
2022/11/25 12:38:02;;;;;;;10.48;6.25;;;;;;;;;;5013746;28;20058;-67
2022/11/25 12:40:36;;;;;;;12.32;6.40;;;;;;;;;;5013350;28;20487;-66
2022/11/25 12:43:26;;;;;;;13.75;7.18;;;;;;;;;;4996028;28;20053;-66
2022/11/25 12:46:19;;;;;;;13.55;7.22;;;;;;;;;;4999867;28;20104;-66
2022/11/25 12:48:45;;;;;;;12.75;6.47;;;;;;;;;;5002462;28;20518;-65
2022/11/25 12:51:17;;;;;;;17.88;7.57;;;;;;;;;;5013441;28;20053;-66
2022/11/25 12:54:02;;;;;;;11.32;6.80;;;;;;;;;;5011991;28;20058;-64
2022/11/25 12:56:43;;;;;;;14.40;7.03;;;;;;;;;;5013331;28;20049;-66
2022/11/25 12:59:37;;;;;;;16.08;6.95;;;;;;;;;;4994964;28;20551;-66
2022/11/25 13:02:43;;;;;;;10.43;7.30;;;;;;;;;;5013034;28;20301;-66
2022/11/25 13:05:20;;;;;;;14.13;7.28;;;;;;;;;;5013218;28;20061;-66
2022/11/25 13:08:16;;;;;;;13.57;7.15;;;;;;;;;;5011286;28;20132;-66
2022/11/25 13:10:56;;;;;;;12.02;7.28;;;;;;;;;;5012706;28;20050;-66
2022/11/25 13:13:40;;;;;;;13.68;7.60;;;;;;;;;;5011651;28;20054;-70
2022/11/25 13:16:08;;;;;;;11.73;6.57;;;;;;;;;;5012820;28;20081;-66
2022/11/25 13:18:39;;;;;;;13.82;6.65;;;;;;;;;;5010925;28;20488;-66
2022/11/25 13:21:09;;;;;;;15.73;7.22;;;;;;;;;;4995132;28;20077;-65
2022/11/25 13:23:45;;;;;;;13.32;7.57;;;;;;;;;;4995626;28;20459;-66
2022/11/25 13:26:27;;;;;;;9.15;6.68;;;;;;;;;;5011615;28;20057;-65
2022/11/25 13:28:54;;;;;;;16.70;7.85;;;;;;;;;;5011854;28;20188;-66
2022/11/25 13:31:23;;;;;;;10.75;6.20;;;;;;;;;;5012518;28;20050;-65
2022/11/25 13:34:14;;;;;;;12.68;6.18;;;;;;;;;;5012735;28;20049;-66
2022/11/25 13:36:54;;;;;;;12.60;6.18;;;;;;;;;;5012554;28;20049;-65
2022/11/25 13:39:35;;;;;;;11.25;5.35;;;;;;;;;;5011838;28;20042;-67
2022/11/25 13:42:28;;;;;;;7.32;4.95;;;;;;;;;;5012232;28;20053;-65
2022/11/25 13:44:58;;;;;;;14.65;7.03;;;;;;;;;;5009204;28;20100;-66
2022/11/25 13:47:39;;;;;;;13.38;7.38;;;;;;;;;;5010502;28;20057;-65
2022/11/25 13:50:15;;;;;;;13.95;7.55;;;;;;;;;;4994059;28;20555;-65
2022/11/25 13:53:00;;;;;;;15.38;8.10;;;;;;;;;;5012412;28;20141;-65
2022/11/25 13:55:39;;;;;;;17.73;8.43;;;;;;;;;;5011248;28;20103;-65
2022/11/25 13:58:08;;;;;;;12.48;7.13;;;;;;;;;;4994099;28;20045;-65
2022/11/25 14:00:35;;;;;;;13.02;7.13;;;;;;;;;;5011826;28;20096;-64
2022/11/25 14:03:19;;;;;;;11.25;6.68;;;;;;;;;;5012040;28;20049;-65
2022/11/25 14:06:23;;;;;;;10.98;6.82;;;;;;;;;;5012210;28;20140;-65
2022/11/25 14:08:53;;;;;;;10.25;5.57;;;;;;;;;;5010175;28;20115;-65
2022/11/25 14:11:28;;;;;;;8.82;6.45;;;;;;;;;;5012324;28;20053;-65
2022/11/25 14:14:05;;;;;;;11.82;7.82;;;;;;;;;;5011724;28;20104;-66
2022/11/25 14:16:47;;;;;;;11.73;8.15;;;;;;;;;;5011164;28;20092;-66
2022/11/25 14:19:39;;;;;;;12.13;6.88;;;;;;;;;;5010905;28;20046;-65
2022/11/25 14:22:43;;;;;;;14.65;8.38;;;;;;;;;;5011821;28;20096;-66
2022/11/25 14:25:31;;;;;;;12.23;5.85;;;;;;;;;;5011571;28;20122;-65
2022/11/25 14:28:06;;;;;;;11.32;5.82;;;;;;;;;;4993532;28;20054;-67
2022/11/25 14:30:33;;;;;;;11.35;5.55;;;;;;;;;;4994187;28;20049;-65
2022/11/25 14:33:02;;;;;;;10.50;5.07;;;;;;;;;;4994592;28;20053;-65
2022/11/25 14:35:40;;;;;;;8.38;4.57;;;;;;;;;;4994473;28;20050;-67
2022/11/25 14:38:15;;;;;;;11.10;5.38;;;;;;;;;;4994264;28;20056;-66
2022/11/25 14:40:59;;;;;;;10.82;5.20;;;;;;;;;;4996256;28;20042;-66
2022/11/25 14:43:25;;;;;;;9.63;5.18;;;;;;;;;;4998663;28;20057;-66
2022/11/25 14:46:14;;;;;;;13.80;6.97;;;;;;;;;;4996611;28;20053;-65
2022/11/25 14:48:42;;;;;;;11.50;4.40;;;;;;;;;;5014892;28;20053;-66
2022/11/25 14:51:10;;;;;;;17.17;5.50;;;;;;;;;;5015696;28;20050;-65
2022/11/25 14:53:42;;;;;;;9.30;3.53;;;;;;;;;;4998327;28;20050;-66
2022/11/25 14:56:21;;;;;;;15.77;4.93;;;;;;;;;;4998976;28;20109;-66
2022/11/25 14:58:50;;;;;;;12.48;3.88;;;;;;;;;;4997357;28;20049;-66
2022/11/25 15:01:24;;;;;;;9.65;3.50;;;;;;;;;;5014076;28;20050;-66
2022/11/25 15:04:03;;;;;;;16.95;5.38;;;;;;;;;;5015541;28;20050;-66
2022/11/25 15:06:41;;;;;;;23.55;6.32;;;;;;;;;;5014251;28;20049;-67
2022/11/25 15:09:24;;;;;;;16.25;4.75;;;;;;;;;;5014664;28;20049;-66
2022/11/25 15:12:05;;;;;;;17.25;5.55;;;;;;;;;;5014099;28;20227;-67
2022/11/25 15:14:34;;;;;;;10.23;4.00;;;;;;;;;;4997961;28;20116;-67
2022/11/25 15:17:05;;;;;;;14.98;5.45;;;;;;;;;;5015190;28;20073;-66
2022/11/25 15:19:33;;;;;;;15.90;5.22;;;;;;;;;;5014244;28;20108;-67